createdAt,value
2022-09-10T00:00:30.905Z,86.000000
2022-09-10T00:05:22.549Z,86.000000
2022-09-10T00:10:24.829Z,86.500000
2022-09-10T00:15:22.677Z,86.692308
2022-09-10T00:20:19.388Z,86.600000
2022-09-10T00:25:22.652Z,86.083333
2022-09-10T00:30:25.563Z,86.875000
2022-09-10T00:35:22.618Z,87.000000
2022-09-10T00:40:19.553Z,86.444444
2022-09-10T00:45:22.688Z,86.692308
2022-09-10T00:50:22.721Z,87.000000
2022-09-10T00:55:23.535Z,87.000000
2022-09-10T01:00:22.585Z,87.000000
2022-09-10T01:05:23.129Z,87.000000
2022-09-10T01:10:22.624Z,87.000000
2022-09-10T01:15:22.614Z,87.000000
2022-09-10T01:20:22.891Z,87.000000
2022-09-10T01:25:24.004Z,87.000000
2022-09-10T01:30:22.763Z,87.000000
2022-09-10T01:35:22.731Z,87.000000
2022-09-10T01:40:21.088Z,86.571429
2022-09-10T01:45:24.254Z,86.545455
2022-09-10T01:50:25.005Z,87.000000
2022-09-10T01:55:22.704Z,87.000000
2022-09-10T02:00:22.756Z,87.500000
2022-09-10T02:05:24.641Z,87.000000
2022-09-10T02:10:22.814Z,87.000000
2022-09-10T02:15:22.670Z,87.000000
2022-09-10T02:20:22.641Z,87.000000
2022-09-10T02:25:25.371Z,87.000000
2022-09-10T02:30:22.821Z,87.000000
2022-09-10T02:35:19.545Z,87.272727
2022-09-10T02:40:22.744Z,87.583333
2022-09-10T02:45:25.966Z,88.000000
2022-09-10T02:50:23.024Z,87.000000
2022-09-10T02:55:19.908Z,87.666667
2022-09-10T03:00:23.155Z,87.555556
2022-09-10T03:05:22.914Z,87.000000
2022-09-10T03:10:22.785Z,87.200000
2022-09-10T03:15:22.850Z,88.000000
2022-09-10T03:20:23.994Z,88.000000
2022-09-10T03:25:22.898Z,88.000000
2022-09-10T03:30:22.760Z,87.000000
2022-09-10T03:35:22.892Z,87.750000
2022-09-10T03:40:24.442Z,88.000000
2022-09-10T03:45:22.881Z,87.090909
2022-09-10T03:50:22.783Z,87.000000
2022-09-10T03:55:22.818Z,87.083333
2022-09-10T04:00:24.939Z,87.000000
2022-09-10T04:05:23.025Z,87.000000
2022-09-10T04:10:18.770Z,87.000000
2022-09-10T04:15:22.934Z,87.692308
2022-09-10T04:20:25.436Z,87.285714
2022-09-10T04:25:23.029Z,87.000000
2022-09-10T04:30:19.634Z,87.000000
2022-09-10T04:35:22.866Z,87.888889
2022-09-10T04:40:26.067Z,87.400000
2022-09-10T04:45:23.946Z,86.727273
2022-09-10T04:50:22.921Z,86.166667
2022-09-10T04:55:23.327Z,86.000000
2022-09-10T05:00:22.803Z,85.500000
2022-09-10T05:05:23.003Z,85.846154
2022-09-10T05:10:23.067Z,86.300000
2022-09-10T05:15:23.537Z,86.545455
2022-09-10T05:20:23.075Z,85.888889
2022-09-10T05:25:29.853Z,86.000000
2022-09-10T05:30:22.789Z,86.000000
2022-09-10T05:35:24.054Z,86.000000
2022-09-10T05:40:22.942Z,87.000000
2022-09-10T05:45:22.881Z,86.454545
2022-09-10T05:50:22.905Z,86.000000
2022-09-10T05:55:24.509Z,84.300000
2022-09-10T06:00:22.942Z,83.800000
2022-09-10T06:05:30.701Z,83.750000
2022-09-10T06:10:21.830Z,84.363636
2022-09-10T06:15:24.944Z,83.100000
2022-09-10T06:20:28.366Z,83.166667
2022-09-10T06:25:19.240Z,82.250000
2022-09-10T06:30:23.213Z,82.800000
2022-09-10T06:35:25.366Z,85.100000
2022-09-10T06:40:23.024Z,88.416667
2022-09-10T06:45:20.382Z,88.727273
2022-09-10T06:50:22.884Z,87.181818
2022-09-10T06:55:25.884Z,88.416667
2022-09-10T07:00:29.015Z,88.583333
2022-09-10T07:05:23.020Z,87.454545
2022-09-10T07:10:23.227Z,86.750000
2022-09-10T07:15:22.886Z,84.727273
2022-09-10T07:20:23.126Z,86.181818
2022-09-10T07:25:23.101Z,87.000000
2022-09-10T07:30:24.030Z,88.111111
2022-09-10T07:35:23.182Z,87.545455
2022-09-10T07:40:23.061Z,88.600000
2022-09-10T07:45:23.065Z,88.166667
2022-09-10T07:50:25.538Z,87.111111
2022-09-10T07:55:23.058Z,86.777778
2022-09-10T08:00:23.008Z,88.000000
2022-09-10T08:05:23.207Z,86.615385
2022-09-10T08:10:24.817Z,87.000000
2022-09-10T08:15:23.106Z,87.666667
2022-09-10T08:20:19.174Z,87.111111
2022-09-10T08:25:23.097Z,86.090909
2022-09-10T08:30:25.435Z,87.555556
2022-09-10T08:35:23.144Z,87.750000
2022-09-10T08:40:19.672Z,87.272727
2022-09-10T08:45:23.225Z,88.500000
2022-09-10T08:50:25.741Z,87.000000
2022-09-10T08:55:23.206Z,87.700000
2022-09-10T09:00:19.988Z,85.777778
2022-09-10T09:05:23.094Z,84.090909
2022-09-10T09:10:23.379Z,81.272727
2022-09-10T09:15:23.059Z,81.100000
2022-09-10T09:20:23.143Z,80.333333
2022-09-10T09:25:23.865Z,79.100000
2022-09-10T09:30:23.165Z,78.500000
2022-09-10T09:35:23.098Z,79.000000
2022-09-10T09:40:23.144Z,79.888889
2022-09-10T09:45:24.023Z,80.727273
2022-09-10T09:50:23.358Z,80.250000
2022-09-10T09:55:23.171Z,80.100000
2022-09-10T10:00:23.236Z,80.250000
2022-09-10T10:05:24.566Z,80.083333
2022-09-10T10:10:27.807Z,80.222222
2022-09-10T10:15:24.330Z,79.923077
2022-09-10T10:20:23.124Z,79.200000
2022-09-10T10:25:25.074Z,79.000000
2022-09-10T10:30:28.218Z,80.181818
2022-09-10T10:35:19.010Z,80.076923
2022-09-10T10:40:23.241Z,80.000000
2022-09-10T10:45:25.329Z,80.545455
2022-09-10T10:50:23.251Z,80.750000
2022-09-10T10:55:20.110Z,81.818182
2022-09-10T11:00:23.164Z,81.444444
2022-09-10T11:05:25.738Z,81.600000
2022-09-10T11:10:23.221Z,82.000000
2022-09-10T11:15:19.897Z,82.100000
2022-09-10T11:20:30.587Z,82.300000
2022-09-10T11:25:26.161Z,83.090909
2022-09-10T11:30:23.304Z,83.636364
2022-09-10T11:35:23.272Z,82.300000
2022-09-10T11:40:23.615Z,82.700000
2022-09-10T11:45:23.300Z,82.444444
2022-09-10T11:50:23.251Z,81.454545
2022-09-10T11:55:23.443Z,80.307692
2022-09-10T12:00:23.812Z,81.888889
2022-09-10T12:05:23.401Z,81.000000
2022-09-10T12:10:23.407Z,80.545455
2022-09-10T12:15:23.217Z,85.333333
2022-09-10T12:20:24.440Z,86.500000
2022-09-10T12:25:24.129Z,87.416667
2022-09-10T12:30:23.315Z,84.909091
2022-09-10T12:35:23.331Z,84.769231
2022-09-10T12:40:24.790Z,83.000000
2022-09-10T12:45:23.446Z,83.750000
2022-09-10T12:50:19.002Z,84.363636
2022-09-10T12:55:23.495Z,84.333333
2022-09-10T13:00:25.149Z,85.000000
2022-09-10T13:05:23.301Z,86.000000
2022-09-10T13:10:21.899Z,85.900000
2022-09-10T13:15:23.277Z,85.285714
2022-09-10T13:20:26.164Z,85.750000
2022-09-10T13:25:23.584Z,86.916667
2022-09-10T13:30:20.101Z,87.636364
2022-09-10T13:35:23.273Z,86.384615
2022-09-10T13:40:26.337Z,87.090909
2022-09-10T13:45:23.351Z,88.727273
2022-09-10T13:50:23.397Z,89.363636
2022-09-10T13:55:23.599Z,89.500000
2022-09-10T14:00:23.350Z,89.111111
2022-09-10T14:05:29.880Z,88.500000
2022-09-10T14:10:23.553Z,89.000000
2022-09-10T14:15:24.166Z,89.000000
2022-09-10T14:20:23.544Z,88.428571
2022-09-10T14:25:23.435Z,88.300000
2022-09-10T14:30:23.400Z,89.000000
2022-09-10T14:35:24.576Z,89.333333
2022-09-10T14:40:27.911Z,90.000000
2022-09-10T14:45:23.385Z,90.000000
2022-09-10T14:50:21.854Z,90.000000
2022-09-10T14:55:25.144Z,90.000000
2022-09-10T15:00:23.406Z,90.000000
2022-09-10T15:05:19.358Z,90.000000
2022-09-10T15:10:23.467Z,90.000000
2022-09-10T15:15:25.454Z,90.000000
2022-09-10T15:20:27.257Z,90.000000
2022-09-10T15:25:19.956Z,89.909091
2022-09-10T15:30:23.505Z,89.833333
2022-09-10T15:35:26.142Z,89.636364
2022-09-10T15:40:29.191Z,90.000000
2022-09-10T15:45:20.262Z,89.909091
2022-09-10T15:50:23.563Z,90.000000
2022-09-10T15:55:23.456Z,90.000000
2022-09-10T16:00:23.429Z,90.666667
2022-09-10T16:05:23.501Z,91.000000
2022-09-10T16:10:23.915Z,91.000000
2022-09-10T16:15:23.387Z,91.000000
2022-09-10T16:20:23.560Z,91.083333
2022-09-10T16:25:23.512Z,91.000000
2022-09-10T16:30:24.583Z,91.857143
2022-09-10T16:35:23.457Z,92.000000
2022-09-10T16:40:23.525Z,92.000000
2022-09-10T16:45:23.550Z,92.111111
2022-09-10T16:50:24.691Z,92.000000
2022-09-10T16:55:23.586Z,92.307692
2022-09-10T17:00:23.672Z,93.000000
2022-09-10T17:05:23.629Z,93.000000
2022-09-10T17:10:25.492Z,93.000000
2022-09-10T17:15:23.614Z,93.000000
2022-09-10T17:20:19.395Z,93.000000
2022-09-10T17:25:23.488Z,93.000000
2022-09-10T17:30:25.797Z,93.000000
2022-09-10T17:35:23.593Z,93.000000
2022-09-10T17:40:20.087Z,93.571429
2022-09-10T17:45:23.678Z,94.000000
2022-09-10T17:50:26.080Z,94.000000
2022-09-10T17:55:33.071Z,94.000000
2022-09-10T18:00:20.397Z,94.000000
2022-09-10T18:05:23.588Z,94.000000
2022-09-10T18:10:26.574Z,94.000000
2022-09-10T18:15:23.684Z,94.000000
2022-09-10T18:20:23.557Z,94.000000
2022-09-10T18:25:24.037Z,94.636364
2022-09-10T18:30:23.529Z,94.545455
2022-09-10T18:35:23.690Z,94.000000
2022-09-10T18:40:23.593Z,94.000000
2022-09-10T18:45:24.509Z,94.272727
2022-09-10T18:50:27.588Z,95.000000
2022-09-10T18:55:23.714Z,95.000000
2022-09-10T19:00:23.579Z,95.000000
2022-09-10T19:05:24.859Z,95.000000
2022-09-10T19:10:23.790Z,95.000000
2022-09-10T19:15:19.023Z,94.750000
2022-09-10T19:20:23.710Z,94.222222
2022-09-10T19:25:25.473Z,94.100000
2022-09-10T19:30:23.626Z,94.636364
2022-09-10T19:35:19.662Z,95.000000
2022-09-10T19:40:22.873Z,95.000000
2022-09-10T19:45:25.969Z,95.000000
2022-09-10T19:50:23.625Z,95.000000
2022-09-10T19:55:20.158Z,95.000000
2022-09-10T20:00:45.534Z,95.000000
2022-09-10T20:05:26.323Z,95.000000
2022-09-10T20:10:23.788Z,95.416667
2022-09-10T20:15:20.570Z,95.727273
2022-09-10T20:20:23.800Z,96.000000
2022-09-10T20:25:23.630Z,96.000000
2022-09-10T20:30:25.332Z,96.000000
2022-09-10T20:35:23.879Z,96.000000
2022-09-10T20:40:24.133Z,96.000000
2022-09-10T20:45:23.772Z,95.750000
2022-09-10T20:50:23.630Z,95.777778
2022-09-10T20:55:23.651Z,95.000000
2022-09-10T21:00:24.495Z,95.000000
2022-09-10T21:05:23.680Z,95.416667
2022-09-10T21:10:23.938Z,95.000000
2022-09-10T21:15:23.768Z,95.000000
2022-09-10T21:20:24.979Z,94.300000
2022-09-10T21:25:23.720Z,94.000000
2022-09-10T21:30:19.046Z,94.000000
2022-09-10T21:35:23.701Z,94.230769
2022-09-10T21:40:25.488Z,95.000000
2022-09-10T21:45:26.244Z,95.000000
2022-09-10T21:50:19.543Z,95.000000
2022-09-10T21:55:23.771Z,95.000000
2022-09-10T22:00:25.697Z,95.750000
2022-09-10T22:05:23.651Z,96.000000
2022-09-10T22:10:19.882Z,96.000000
2022-09-10T22:15:23.597Z,96.000000
2022-09-10T22:20:26.352Z,96.000000
2022-09-10T22:25:23.634Z,96.000000
2022-09-10T22:30:20.656Z,96.000000
2022-09-10T22:35:24.246Z,96.000000
2022-09-10T22:40:26.840Z,96.111111
2022-09-10T22:45:24.327Z,96.600000
2022-09-10T22:50:20.919Z,97.000000
2022-09-10T22:55:24.138Z,97.000000
2022-09-10T23:00:27.084Z,97.000000
2022-09-10T23:05:24.082Z,97.000000
2022-09-10T23:10:24.291Z,97.000000
2022-09-10T23:15:24.482Z,97.000000
2022-09-10T23:20:24.078Z,97.000000
2022-09-10T23:25:18.996Z,97.000000
2022-09-10T23:30:24.044Z,97.000000
2022-09-10T23:35:25.226Z,97.000000
2022-09-10T23:40:29.938Z,97.000000
2022-09-10T23:45:19.338Z,97.090909
2022-09-10T23:50:22.538Z,97.000000
2022-09-10T23:55:26.457Z,97.000000
